Chilili, New Mexico
Current Conditions -  °F | °C
As of 1:52 PM on Thursday 23 Oct 2014 (Local Time) from KABQ Reporting Station
Clear Clear  
Wind Chill: 72°   Ceiling: Unl
Heat Index: 72°   Visibility: 10mi
Dew Point: 39°   Wind: 3mph
Humidity: 30%   Direction: NA
Pressure: 30.23"   Gusts: NA
Location:  34.9842°N, 106.322°W
Report Text: KABQ 231952Z VRB03KT 10SM CLR 22/04 A3023 RMK AO2 SLP176 T02220039
Loading
Personal Weather Stations






























Interactive Weather Map
Tropical Storm Tracking
New forecast layout! Learn more

10-Day Weather Forecast

Advertisements
Track Severe Weather on mobile